Decoded Metar for LEVT (VITORIA in SPAIN) (IATA:VIT) | Meteo·Mobile Aviation Weather
aviador You're here:

LEVT Decoded Metar

VITORIA in SPAIN
Report Time2019-03-21 21:30:00
UTC Time2019-03-21 21:41:33
Flight Rules vfr VFR
WindCalm
Visibility9999 m
Phenomena:N/A
Clouds:N/A
Expected CloudBase > 800 ft AGL from Temp-Dew spread
CeilingNone
Temp03°C (ISA -9)
Dew Point01°C (87% RH)
AAT1.2°C
QNH1028 hPa
Density Alt210 ft
Elevation1,670 ft
Report Wrong Elevation
Raw Report
METAR LEVT 212130Z 00000KT CAVOK 03/01 Q1028=

Extra information for LEVT:More info

Metar Taf Metar & Taf Last 4 Metars F.Rules Stats Wind Profile Meteogram Temp Stats Airport Information Weather charts Add Link Nearby VenuesMetar ALERT Operation Metar Decoded Social comments